This is the latest recevied weather packets stored in our database for station/object OK1LPD-6. If no packets are shown the sender has not sent any weather packets the latest 10 day(s).
| Time | Temp. | Humidity | Pressure | Rain* | Wind** | Luminosity | Snow |
|---|---|---|---|---|---|---|---|
| 1778084139 | 17.78° C | 69% | 1004.4 hPa | 0.25 mm | - | - | - |
| 1778083527 | 18.89° C | 71% | 1004.5 hPa | 0.51 mm | - | - | - |
| 1778082928 | 18.89° C | 71% | 1004.7 hPa | 0.51 mm | - | - | - |
| 1778082339 | 17.78° C | 75% | 1004.5 hPa | 0.51 mm | - | - | - |
| 1778081728 | 16.67° C | 78% | 1004.7 hPa | 0.51 mm | - | - | - |
| 1778081128 | 16.67° C | 78% | 1005 hPa | 0.51 mm | - | - | - |
| 1778080552 | 16.67° C | 74% | 1004.9 hPa | 0.25 mm | - | - | - |
| 1778079928 | 17.78° C | 63% | 1005 hPa | 0 mm | - | - | - |
| 1778079328 | 18.33° C | 63% | 1004.9 hPa | 0 mm | - | - | - |
| 1778078747 | 18.89° C | 58% | 1004.9 hPa | 0 mm | - | - | - |
| 1778078129 | 20° C | 55% | 1005.2 hPa | 0 mm | - | - | - |
| 1778077529 | 21.11° C | 54% | 1005.2 hPa | 0 mm | - | - | - |
| 1778076949 | 21.67° C | 51% | 1005 hPa | 0 mm | - | - | - |
| 1778076328 | 22.78° C | 42% | 1004.9 hPa | 0 mm | - | - | - |
| 1778075729 | 22.78° C | 41% | 1005 hPa | 0 mm | - | - | - |
| 1778075148 | 22.78° C | 40% | 1004.9 hPa | 0 mm | - | - | - |
| 1778074530 | 23.33° C | 41% | 1005.1 hPa | 0 mm | - | - | - |
| 1778073929 | 23.33° C | 41% | 1005.1 hPa | 0 mm | - | - | - |
| 1778073350 | 23.89° C | 40% | 1005.1 hPa | 0 mm | - | - | - |
| 1778072729 | 24.44° C | 39% | 1005.2 hPa | 0 mm | - | - | - |
| 1778072130 | 25° C | 37% | 1005.3 hPa | 0 mm | - | - | - |
| 1778071548 | 25° C | 40% | 1005.6 hPa | 0 mm | - | - | - |
| 1778070930 | 22.78° C | 41% | 1005.6 hPa | 0 mm | - | - | - |
| 1778070330 | 23.89° C | 41% | 1005.8 hPa | 0 mm | - | - | - |
| 1778069750 | 24.44° C | 41% | 1006 hPa | 0 mm | - | - | - |
* Rain latest hour (hover to see other rain measurements)
** Current wind speed in m/s (hover to see current wind gust speed)